Time;durP1;ratioP1;P1;durP2;ratioP2;P2;SDS_P1;SDS_P2;PMS_P1;PMS_P2;Temp;Humidity;BMP_temperature;BMP_pressure;BME280_temperature;BME280_humidity;BME280_pressure;Samples;Min_cycle;Max_cycle;Signal;HPM_P1;HPM_P2
2024/02/29 00:02:16;;;;;;;0.57;0.55;;;22.20;44.70;;;;;;5157263;27;20215;-65
2024/02/29 00:04:45;;;;;;;0.75;0.70;;;22.20;44.70;;;;;;5157569;27;20217;-64
2024/02/29 00:07:12;;;;;;;2.25;0.60;;;22.20;44.70;;;;;;5157198;27;20302;-66
2024/02/29 00:09:39;;;;;;;0.75;0.50;;;22.20;44.70;;;;;;5156969;27;20188;-66
2024/02/29 00:12:07;;;;;;;0.50;0.43;;;22.30;44.70;;;;;;5157089;27;20250;-64
2024/02/29 00:14:34;;;;;;;0.70;0.65;;;22.30;44.70;;;;;;5156812;27;20722;-64
2024/02/29 00:17:01;;;;;;;1.00;0.52;;;22.30;44.70;;;;;;5156869;27;20221;-66
2024/02/29 00:19:29;;;;;;;0.52;0.52;;;22.30;44.70;;;;;;5157223;27;20190;-66
2024/02/29 00:21:57;;;;;;;0.50;0.50;;;22.20;44.70;;;;;;5156833;27;20220;-63
2024/02/29 00:24:24;;;;;;;0.75;0.60;;;22.20;44.70;;;;;;5156720;27;20278;-62
2024/02/29 00:26:51;;;;;;;0.80;0.68;;;22.20;44.80;;;;;;5156861;27;20207;-63
2024/02/29 00:29:18;;;;;;;0.70;0.70;;;22.20;44.70;;;;;;5156913;27;20188;-63
2024/02/29 00:31:45;;;;;;;0.60;0.60;;;22.20;44.70;;;;;;5156225;27;20276;-65
2024/02/29 00:34:12;;;;;;;0.57;0.50;;;22.20;44.80;;;;;;5156442;27;20279;-65
2024/02/29 00:36:39;;;;;;;1.15;0.80;;;22.10;44.70;;;;;;5156645;27;20226;-66
2024/02/29 00:39:08;;;;;;;1.52;0.60;;;22.10;44.70;;;;;;5156160;27;20772;-63
2024/02/29 00:41:34;;;;;;;1.05;0.90;;;22.20;44.80;;;;;;5156665;27;20219;-64
2024/02/29 00:44:01;;;;;;;1.30;0.80;;;22.20;44.80;;;;;;5156621;27;20184;-65
2024/02/29 00:46:28;;;;;;;2.00;0.60;;;22.10;44.70;;;;;;5155987;27;20302;-65
2024/02/29 00:48:54;;;;;;;0.65;0.50;;;22.20;44.80;;;;;;5156613;27;20266;-63
2024/02/29 00:51:21;;;;;;;0.90;0.80;;;22.20;44.80;;;;;;5156342;27;20220;-65
2024/02/29 00:53:49;;;;;;;0.70;0.60;;;22.20;45.00;;;;;;5155972;27;20186;-66
2024/02/29 00:56:17;;;;;;;1.10;0.55;;;22.20;44.80;;;;;;5156415;27;20614;-64
2024/02/29 00:58:44;;;;;;;0.80;0.57;;;22.20;44.80;;;;;;5156162;27;20184;-65
2024/02/29 01:01:11;;;;;;;0.88;0.60;;;22.20;44.80;;;;;;5156045;27;20220;-65
2024/02/29 01:03:38;;;;;;;1.05;0.70;;;22.20;44.80;;;;;;5156208;27;20198;-65
2024/02/29 01:06:06;;;;;;;0.50;0.43;;;22.20;44.80;;;;;;5156112;27;20219;-66
2024/02/29 01:08:33;;;;;;;0.60;0.60;;;22.20;44.80;;;;;;5155969;27;20180;-66
2024/02/29 01:11:00;;;;;;;0.95;0.60;;;22.20;44.80;;;;;;5155942;27;20206;-65
2024/02/29 01:13:28;;;;;;;1.33;0.63;;;22.20;45.50;;;;;;5155755;27;20318;-65
2024/02/29 01:15:55;;;;;;;1.20;0.60;;;22.20;44.80;;;;;;5155936;27;20676;-65
2024/02/29 01:18:22;;;;;;;0.77;0.60;;;22.20;44.80;;;;;;5156124;27;20192;-64
2024/02/29 01:20:49;;;;;;;0.70;0.63;;;22.20;44.80;;;;;;5155791;27;20184;-66
2024/02/29 01:23:16;;;;;;;1.42;0.63;;;22.20;44.80;;;;;;5155651;27;20267;-63
2024/02/29 01:25:43;;;;;;;1.23;0.73;;;22.20;44.80;;;;;;5155763;27;20188;-65
2024/02/29 01:28:10;;;;;;;0.98;0.75;;;22.20;44.80;;;;;;5155953;27;20219;-63
2024/02/29 01:30:38;;;;;;;0.93;0.80;;;22.20;44.80;;;;;;5155055;27;20649;-63
2024/02/29 01:33:05;;;;;;;1.02;0.63;;;22.10;44.70;;;;;;5155832;27;20233;-66
2024/02/29 01:35:32;;;;;;;1.77;0.68;;;22.10;44.70;;;;;;5155557;27;20271;-63
2024/02/29 01:37:59;;;;;;;1.60;0.75;;;22.20;44.80;;;;;;5155240;27;20220;-63
2024/02/29 01:40:26;;;;;;;1.20;0.70;;;22.20;44.80;;;;;;5155451;27;20614;-65
2024/02/29 01:42:53;;;;;;;1.55;0.85;;;22.10;44.70;;;;;;5155686;27;20215;-66
2024/02/29 01:45:20;;;;;;;1.80;0.70;;;22.10;44.70;;;;;;5155085;27;20624;-64
2024/02/29 01:47:48;;;;;;;2.53;0.93;;;22.10;44.70;;;;;;5155377;27;20295;-66
2024/02/29 01:50:17;;;;;;;1.25;0.90;;;22.10;44.70;;;;;;5154747;27;20210;-66
2024/02/29 01:52:45;;;;;;;1.23;0.70;;;22.20;44.80;;;;;;5154811;27;20685;-66
2024/02/29 01:55:13;;;;;;;1.83;0.90;;;22.10;44.70;;;;;;5155205;27;20278;-65
2024/02/29 01:57:40;;;;;;;1.30;0.75;;;22.10;44.70;;;;;;5155260;27;20215;-64
2024/02/29 02:00:09;;;;;;;1.50;0.80;;;22.10;44.70;;;;;;5154643;27;20188;-66
2024/02/29 02:02:37;;;;;;;1.38;0.85;;;22.10;44.70;;;;;;5155037;27;20290;-65
2024/02/29 02:05:06;;;;;;;2.25;0.70;;;22.10;44.70;;;;;;5155084;27;20187;-62
2024/02/29 02:07:35;;;;;;;0.95;0.70;;;22.20;44.70;;;;;;5154916;27;20298;-65
2024/02/29 02:10:02;;;;;;;1.02;0.60;;;22.20;44.70;;;;;;5154927;27;20211;-66
2024/02/29 02:12:29;;;;;;;1.75;0.73;;;22.10;44.60;;;;;;5154642;27;20231;-62
2024/02/29 02:14:56;;;;;;;2.20;0.80;;;22.20;44.70;;;;;;5154402;27;20314;-64
2024/02/29 02:17:23;;;;;;;1.55;0.85;;;22.20;44.60;;;;;;5154908;27;20218;-65
2024/02/29 02:19:51;;;;;;;1.45;0.90;;;22.20;44.70;;;;;;5154733;27;20262;-62
2024/02/29 02:22:20;;;;;;;2.90;0.80;;;22.20;44.70;;;;;;5154350;27;20225;-65
2024/02/29 02:24:47;;;;;;;1.40;0.85;;;22.20;44.70;;;;;;5154637;27;20187;-66
2024/02/29 02:27:14;;;;;;;3.08;0.80;;;22.10;44.60;;;;;;5154120;27;20751;-63
2024/02/29 02:29:40;;;;;;;1.73;0.85;;;22.10;44.50;;;;;;5154123;27;20567;-65
2024/02/29 02:32:07;;;;;;;2.33;1.00;;;22.10;44.50;;;;;;5154411;27;20215;-65
2024/02/29 02:34:34;;;;;;;1.13;0.75;;;22.10;44.50;;;;;;5154459;27;20184;-66
2024/02/29 02:37:01;;;;;;;1.42;0.88;;;22.10;44.50;;;;;;5154003;27;20216;-64
2024/02/29 02:39:29;;;;;;;1.30;0.70;;;22.10;44.50;;;;;;5154124;27;20184;-66
2024/02/29 02:41:56;;;;;;;3.55;1.05;;;22.10;44.50;;;;;;5154359;27;20218;-66
2024/02/29 02:44:23;;;;;;;1.70;1.00;;;22.10;44.50;;;;;;5154150;27;20353;-62
2024/02/29 02:46:50;;;;;;;2.88;1.00;;;22.10;44.50;;;;;;5154207;27;20565;-62
2024/02/29 02:49:17;;;;;;;2.20;0.85;;;22.10;45.20;;;;;;5153909;27;20654;-65
2024/02/29 02:51:44;;;;;;;2.40;1.00;;;22.10;44.50;;;;;;5154091;27;20208;-64
2024/02/29 02:54:11;;;;;;;2.60;0.90;;;22.10;44.40;;;;;;5154096;27;20307;-66
2024/02/29 02:56:39;;;;;;;4.38;1.05;;;22.10;44.40;;;;;;5154053;27;20211;-62
2024/02/29 02:59:06;;;;;;;1.85;0.70;;;22.10;44.40;;;;;;5152113;27;20190;-65
2024/02/29 03:01:33;;;;;;;4.10;1.23;;;22.10;44.40;;;;;;5115140;27;20235;-66
2024/02/29 03:04:00;;;;;;;1.52;0.90;;;22.10;44.40;;;;;;5112720;28;20225;-65
2024/02/29 03:06:27;;;;;;;2.65;0.85;;;22.10;44.40;;;;;;5112540;28;20581;-65
2024/02/29 03:08:54;;;;;;;2.88;0.95;;;22.10;44.40;;;;;;5112725;28;20207;-65
2024/02/29 03:11:21;;;;;;;2.03;1.00;;;22.10;44.40;;;;;;5112441;28;20686;-66
2024/02/29 03:13:49;;;;;;;2.72;0.80;;;22.10;44.30;;;;;;5112270;28;20316;-65
2024/02/29 03:16:22;;;;;;;1.92;0.80;;;22.10;44.30;;;;;;5112860;28;20284;-65
2024/02/29 03:18:49;;;;;;;3.90;1.20;;;22.10;44.30;;;;;;5112343;28;20193;-63
2024/02/29 03:21:16;;;;;;;2.28;0.95;;;22.10;44.30;;;;;;5117404;28;20189;-65
2024/02/29 03:23:43;;;;;;;3.10;1.00;;;22.10;44.30;;;;;;5132386;28;20531;-64
2024/02/29 03:26:10;;;;;;;2.40;0.90;;;22.10;44.30;;;;;;5132966;28;20276;-63
2024/02/29 03:28:37;;;;;;;2.13;0.80;;;22.10;44.30;;;;;;5132851;28;20188;-65
2024/02/29 03:31:09;;;;;;;1.90;0.80;;;22.10;44.30;;;;;;5133278;28;20195;-65
2024/02/29 03:33:36;;;;;;;3.15;0.85;;;22.10;44.30;;;;;;5133011;28;20227;-66
2024/02/29 03:36:04;;;;;;;5.32;1.00;;;22.10;44.30;;;;;;5132687;28;20275;-64
2024/02/29 03:38:31;;;;;;;1.67;0.80;;;22.10;44.30;;;;;;5132972;28;20195;-65
2024/02/29 03:40:58;;;;;;;1.83;0.90;;;22.10;44.30;;;;;;5132750;28;20737;-64
2024/02/29 03:43:25;;;;;;;1.17;0.70;;;22.10;44.20;;;;;;5132854;28;20219;-63
2024/02/29 03:45:52;;;;;;;2.42;0.80;;;22.10;44.20;;;;;;5132955;28;20184;-66
2024/02/29 03:48:20;;;;;;;1.83;0.75;;;22.10;44.30;;;;;;5132884;28;20587;-64
2024/02/29 03:50:47;;;;;;;1.77;0.85;;;22.10;44.20;;;;;;5132764;28;20199;-63
2024/02/29 03:53:14;;;;;;;2.13;0.88;;;22.00;44.10;;;;;;5132941;28;20606;-65
2024/02/29 03:55:43;;;;;;;2.55;0.73;;;22.10;44.20;;;;;;5132933;28;20187;-65
2024/02/29 03:58:10;;;;;;;2.25;0.93;;;22.10;44.20;;;;;;5132415;27;20222;-65
2024/02/29 04:00:37;;;;;;;2.65;0.98;;;22.10;44.20;;;;;;5132851;28;20188;-64
2024/02/29 04:03:04;;;;;;;2.05;0.75;;;22.10;44.10;;;;;;5132877;28;20239;-66
2024/02/29 04:05:33;;;;;;;3.20;0.90;;;22.10;44.10;;;;;;5132479;28;20272;-63
2024/02/29 04:08:03;;;;;;;1.92;0.82;;;22.10;44.10;;;;;;5132955;27;20219;-65
2024/02/29 04:10:30;;;;;;;3.55;0.88;;;22.10;44.10;;;;;;5132545;28;20592;-64
2024/02/29 04:12:58;;;;;;;1.38;0.88;;;22.10;44.10;;;;;;5134152;27;20224;-66
2024/02/29 04:15:25;;;;;;;3.17;1.05;;;22.10;44.10;;;;;;5154687;27;20667;-65
2024/02/29 04:17:51;;;;;;;3.80;1.00;;;22.10;44.10;;;;;;5157182;27;20302;-64
2024/02/29 04:20:19;;;;;;;2.92;1.00;;;22.10;44.10;;;;;;5156867;27;20191;-64
2024/02/29 04:22:47;;;;;;;1.63;0.85;;;22.10;44.10;;;;;;5157002;27;20216;-63
2024/02/29 04:25:16;;;;;;;2.35;0.73;;;22.10;44.10;;;;;;5156982;27;20187;-66
2024/02/29 04:27:43;;;;;;;3.75;0.85;;;22.10;44.10;;;;;;5156916;27;20211;-63
2024/02/29 04:30:11;;;;;;;1.65;1.00;;;22.10;44.10;;;;;;5156889;27;20190;-63
2024/02/29 04:32:38;;;;;;;3.08;0.95;;;22.10;44.00;;;;;;5156587;27;20785;-64
2024/02/29 04:35:06;;;;;;;3.53;0.88;;;22.10;44.00;;;;;;5156338;27;20187;-64
2024/02/29 04:37:33;;;;;;;1.80;0.80;;;22.10;44.00;;;;;;5156797;27;20235;-63
2024/02/29 04:40:01;;;;;;;3.47;1.13;;;22.10;44.10;;;;;;5156626;27;20184;-65
2024/02/29 04:42:28;;;;;;;2.83;0.95;;;22.10;44.00;;;;;;5156288;27;20299;-62
2024/02/29 04:44:55;;;;;;;3.95;0.90;;;22.10;44.00;;;;;;5156563;27;20188;-65
2024/02/29 04:47:22;;;;;;;5.80;1.20;;;22.10;44.00;;;;;;5156184;27;20584;-66
2024/02/29 04:49:49;;;;;;;1.15;0.70;;;22.10;44.00;;;;;;5156294;27;20279;-65
2024/02/29 04:52:16;;;;;;;1.80;0.90;;;22.00;43.90;;;;;;5156240;27;20638;-64
2024/02/29 04:54:43;;;;;;;4.38;1.17;;;22.10;44.70;;;;;;5156002;27;20692;-63
2024/02/29 04:57:11;;;;;;;2.45;0.98;;;22.10;44.00;;;;;;5156297;27;20302;-63
2024/02/29 04:59:38;;;;;;;2.00;0.70;;;22.10;44.00;;;;;;5156050;27;20191;-65
2024/02/29 05:02:06;;;;;;;2.28;0.98;;;22.00;43.90;;;;;;5155869;27;20594;-63
2024/02/29 05:04:32;;;;;;;4.25;1.20;;;22.00;43.90;;;;;;5155756;27;20540;-65
2024/02/29 05:06:59;;;;;;;1.30;1.00;;;22.00;43.90;;;;;;5155850;27;20589;-66
2024/02/29 05:09:27;;;;;;;2.97;0.82;;;22.00;43.90;;;;;;5156209;27;20184;-65
2024/02/29 05:11:54;;;;;;;3.45;0.80;;;22.00;43.90;;;;;;5155861;27;20299;-65
2024/02/29 05:14:22;;;;;;;2.35;0.82;;;22.00;43.80;;;;;;5155416;27;20234;-64
2024/02/29 05:16:50;;;;;;;2.45;1.20;;;22.00;43.80;;;;;;5156113;27;20216;-66
2024/02/29 05:19:17;;;;;;;1.40;0.80;;;22.00;43.80;;;;;;5155708;27;20275;-65
2024/02/29 05:21:45;;;;;;;2.95;1.10;;;22.00;43.80;;;;;;5155617;27;20688;-65
2024/02/29 05:24:12;;;;;;;2.42;1.00;;;22.10;43.90;;;;;;5154619;27;20597;-65
2024/02/29 05:26:39;;;;;;;2.85;0.90;;;22.10;43.90;;;;;;5155525;27;20316;-63
2024/02/29 05:29:06;;;;;;;2.28;0.80;;;22.00;43.70;;;;;;5155670;27;20210;-62
2024/02/29 05:31:35;;;;;;;2.42;0.95;;;22.10;44.50;;;;;;5155687;27;20220;-65
2024/02/29 05:34:02;;;;;;;1.90;0.98;;;22.00;43.70;;;;;;5155374;27;20215;-65
2024/02/29 05:36:29;;;;;;;2.72;1.02;;;22.00;43.70;;;;;;5155567;27;20190;-66
2024/02/29 05:38:56;;;;;;;3.42;1.00;;;22.00;43.70;;;;;;5155482;27;20195;-62
2024/02/29 05:41:23;;;;;;;3.00;1.05;;;22.00;43.70;;;;;;5154971;27;20721;-65
2024/02/29 05:43:50;;;;;;;3.33;0.93;;;22.00;43.70;;;;;;5155092;27;20631;-65
2024/02/29 05:46:17;;;;;;;2.33;0.88;;;22.00;43.70;;;;;;5155214;27;20275;-64
2024/02/29 05:48:46;;;;;;;2.63;1.10;;;22.00;43.70;;;;;;5154751;27;20191;-64
2024/02/29 05:51:13;;;;;;;1.90;1.20;;;22.00;43.60;;;;;;5154969;27;20220;-65
2024/02/29 05:53:40;;;;;;;3.13;1.23;;;22.00;43.60;;;;;;5155401;27;20231;-63
2024/02/29 05:56:06;;;;;;;2.55;1.10;;;22.10;43.70;;;;;;5154864;27;20663;-65
2024/02/29 05:58:33;;;;;;;2.58;0.90;;;22.00;43.60;;;;;;5155337;27;20218;-65
2024/02/29 06:01:00;;;;;;;3.30;1.27;;;22.00;43.60;;;;;;5155103;27;20191;-65
2024/02/29 06:03:27;;;;;;;1.60;0.80;;;22.00;43.60;;;;;;5154742;27;20599;-64
2024/02/29 06:05:56;;;;;;;4.55;1.20;;;22.00;43.60;;;;;;5155291;27;20279;-66
2024/02/29 06:08:22;;;;;;;4.93;1.30;;;22.00;43.60;;;;;;5155126;27;20207;-63
2024/02/29 06:10:49;;;;;;;3.78;1.13;;;22.00;43.60;;;;;;5154396;27;20649;-66
2024/02/29 06:13:16;;;;;;;4.05;1.35;;;22.00;43.90;;;;;;5154531;27;20212;-64
2024/02/29 06:15:43;;;;;;;2.60;1.00;;;22.00;43.60;;;;;;5154561;27;20641;-63
2024/02/29 06:18:13;;;;;;;4.80;1.35;;;22.00;43.60;;;;;;5154545;27;20298;-65
2024/02/29 06:20:40;;;;;;;2.28;0.90;;;22.00;43.60;;;;;;5154462;27;20197;-63
2024/02/29 06:23:08;;;;;;;3.13;1.15;;;22.00;43.50;;;;;;5155053;27;20271;-64
2024/02/29 06:25:35;;;;;;;4.07;1.00;;;22.00;43.50;;;;;;5154539;27;20183;-64
2024/02/29 06:28:02;;;;;;;3.00;1.23;;;22.00;43.60;;;;;;5154371;27;20704;-65
2024/02/29 06:30:31;;;;;;;6.07;1.15;;;22.00;44.10;;;;;;5154242;27;20637;-64
2024/02/29 06:32:58;;;;;;;2.28;0.90;;;22.00;43.50;;;;;;5154004;27;20681;-66
2024/02/29 06:35:25;;;;;;;4.32;1.23;;;22.00;43.50;;;;;;5154229;27;20298;-65
2024/02/29 06:37:53;;;;;;;2.00;1.00;;;22.00;43.40;;;;;;5154186;27;20215;-66
2024/02/29 06:40:22;;;;;;;4.00;1.00;;;22.00;43.50;;;;;;5154162;27;20271;-66
2024/02/29 06:42:50;;;;;;;3.03;1.00;;;22.00;43.40;;;;;;5154019;27;20214;-64
2024/02/29 06:45:17;;;;;;;4.85;1.50;;;22.00;43.70;;;;;;5154023;27;20817;-66
2024/02/29 06:47:43;;;;;;;3.45;1.23;;;22.00;43.40;;;;;;5153977;27;20219;-62
2024/02/29 06:50:11;;;;;;;1.52;0.88;;;22.00;43.40;;;;;;5154097;27;20198;-63
2024/02/29 06:52:39;;;;;;;2.85;1.00;;;22.00;43.40;;;;;;5153509;27;20856;-63
2024/02/29 06:55:08;;;;;;;2.92;0.98;;;22.00;43.40;;;;;;5153888;27;20243;-65
2024/02/29 06:57:36;;;;;;;2.35;0.90;;;22.00;43.40;;;;;;5153965;27;20208;-66
2024/02/29 07:00:05;;;;;;;3.58;1.02;;;22.00;43.30;;;;;;5154102;27;20287;-66
2024/02/29 07:02:32;;;;;;;2.35;0.85;;;22.00;43.30;;;;;;5153632;27;20711;-66
2024/02/29 07:04:59;;;;;;;3.80;1.05;;;22.00;43.30;;;;;;5153721;27;20269;-65
2024/02/29 07:07:26;;;;;;;4.55;1.10;;;22.00;43.30;;;;;;5154191;27;20215;-64
2024/02/29 07:09:54;;;;;;;4.00;1.10;;;22.00;43.30;;;;;;5153782;27;20184;-66
2024/02/29 07:12:21;;;;;;;3.88;1.45;;;22.00;43.30;;;;;;5153949;27;20302;-67
2024/02/29 07:14:50;;;;;;;6.15;1.35;;;22.00;43.30;;;;;;5153725;27;20342;-65
2024/02/29 07:17:17;;;;;;;4.15;1.23;;;22.00;43.30;;;;;;5153857;27;20239;-64
2024/02/29 07:19:44;;;;;;;3.22;1.13;;;22.00;43.30;;;;;;5153910;27;20188;-65
2024/02/29 07:22:11;;;;;;;2.58;1.13;;;22.00;43.40;;;;;;5153456;27;20582;-63
2024/02/29 07:24:38;;;;;;;2.90;1.10;;;22.00;43.30;;;;;;5153313;27;20184;-66
2024/02/29 07:27:05;;;;;;;5.60;1.13;;;22.00;43.30;;;;;;5153745;27;20298;-65
2024/02/29 07:29:33;;;;;;;3.35;1.10;;;22.00;43.30;;;;;;5153830;27;20190;-64
2024/02/29 07:32:01;;;;;;;3.55;1.15;;;22.00;43.30;;;;;;5153550;27;20247;-62
2024/02/29 07:34:28;;;;;;;2.33;0.98;;;22.00;43.30;;;;;;5153766;27;20215;-65
2024/02/29 07:36:55;;;;;;;4.32;1.33;;;22.00;43.30;;;;;;5153372;27;20564;-65
2024/02/29 07:39:23;;;;;;;2.85;0.90;;;21.90;43.20;;;;;;5153466;27;20636;-65
2024/02/29 07:41:50;;;;;;;3.17;1.35;;;22.00;43.30;;;;;;5153298;27;20298;-64
2024/02/29 07:44:17;;;;;;;3.13;1.20;;;22.00;43.30;;;;;;5153381;27;20631;-66
2024/02/29 07:46:44;;;;;;;2.72;1.50;;;21.90;43.20;;;;;;5153590;27;20223;-65
2024/02/29 07:49:13;;;;;;;2.83;0.98;;;22.00;43.30;;;;;;5157556;27;20184;-65
2024/02/29 07:51:39;;;;;;;3.65;1.08;;;22.00;43.30;;;;;;5157571;27;20190;-62
2024/02/29 07:54:06;;;;;;;3.25;1.45;;;22.00;43.30;;;;;;5156819;27;20740;-66
2024/02/29 07:56:33;;;;;;;3.17;1.10;;;22.00;43.30;;;;;;5157439;27;20215;-66
2024/02/29 07:59:00;;;;;;;2.72;1.10;;;21.90;43.10;;;;;;5157528;27;20579;-64
2024/02/29 08:01:27;;;;;;;2.05;1.05;;;21.90;43.10;;;;;;5157241;27;20275;-65
2024/02/29 08:03:54;;;;;;;3.40;1.30;;;22.00;43.20;;;;;;5152826;27;20286;-62
2024/02/29 08:06:22;;;;;;;4.07;1.17;;;22.00;43.20;;;;;;5119909;27;20663;-67
2024/02/29 08:08:49;;;;;;;3.00;1.25;;;22.00;43.10;;;;;;5115986;28;20227;-65
2024/02/29 08:11:16;;;;;;;4.32;1.30;;;22.10;43.10;;;;;;5127607;27;20283;-66
2024/02/29 08:13:44;;;;;;;2.42;1.10;;;22.20;43.20;;;;;;5136081;27;20228;-64
2024/02/29 08:16:11;;;;;;;4.18;1.48;;;22.20;43.90;;;;;;5130292;27;20237;-68
2024/02/29 08:18:38;;;;;;;4.47;1.40;;;22.20;43.20;;;;;;5135921;27;20310;-65
2024/02/29 08:21:05;;;;;;;3.70;1.25;;;22.30;43.30;;;;;;5129874;27;20203;-67
2024/02/29 08:23:35;;;;;;;4.70;1.50;;;22.30;43.30;;;;;;5132531;27;20250;-65
2024/02/29 08:26:08;;;;;;;4.85;1.30;;;22.30;43.30;;;;;;5132228;27;20192;-66
2024/02/29 08:28:35;;;;;;;1.70;0.98;;;22.40;43.30;;;;;;5135783;27;20219;-67
2024/02/29 08:31:03;;;;;;;3.95;1.35;;;22.40;43.30;;;;;;5134740;27;20185;-66
2024/02/29 08:33:29;;;;;;;5.07;1.40;;;22.40;43.30;;;;;;5136110;27;20212;-66
2024/02/29 08:35:57;;;;;;;4.22;1.42;;;22.40;43.30;;;;;;5135407;27;20235;-64
2024/02/29 08:38:24;;;;;;;4.78;1.33;;;22.40;43.30;;;;;;5128490;27;20273;-62
2024/02/29 08:40:52;;;;;;;5.93;1.30;;;22.40;44.00;;;;;;5123078;27;20614;-66
2024/02/29 08:43:20;;;;;;;6.35;1.50;;;22.50;43.40;;;;;;5130976;27;20223;-65
2024/02/29 08:45:47;;;;;;;2.65;1.02;;;22.50;43.50;;;;;;5134696;27;20196;-62
2024/02/29 08:48:14;;;;;;;4.00;1.13;;;22.40;43.30;;;;;;5133020;27;20573;-66
2024/02/29 08:50:41;;;;;;;3.83;1.13;;;22.50;43.40;;;;;;5135179;27;20191;-68
2024/02/29 08:53:08;;;;;;;3.50;1.30;;;22.50;43.40;;;;;;5133385;27;20212;-67
2024/02/29 08:55:35;;;;;;;5.68;1.33;;;22.50;43.40;;;;;;5134494;27;20697;-65
2024/02/29 08:58:03;;;;;;;7.13;1.33;;;22.60;43.50;;;;;;5134668;27;20212;-67
2024/02/29 09:00:30;;;;;;;3.72;1.20;;;22.60;43.30;;;;;;5133891;27;20684;-66
2024/02/29 09:02:57;;;;;;;4.38;1.30;;;22.60;43.30;;;;;;5133151;27;20216;-62
2024/02/29 09:05:24;;;;;;;3.00;1.15;;;22.60;43.20;;;;;;5134888;27;20647;-67
2024/02/29 09:07:51;;;;;;;4.28;0.98;;;22.70;43.30;;;;;;5134968;27;20716;-65
2024/02/29 09:10:19;;;;;;;4.55;1.10;;;22.70;43.20;;;;;;5132462;27;20191;-65
2024/02/29 09:12:46;;;;;;;3.33;1.25;;;22.70;43.20;;;;;;5134910;27;20299;-66
2024/02/29 09:15:14;;;;;;;3.03;1.20;;;22.70;43.10;;;;;;5134453;27;20236;-64
2024/02/29 09:17:41;;;;;;;3.45;1.05;;;22.70;43.10;;;;;;5132690;27;20709;-65
2024/02/29 09:20:10;;;;;;;5.05;1.50;;;22.80;43.20;;;;;;5134421;27;20672;-66
2024/02/29 09:22:37;;;;;;;3.33;1.27;;;22.70;43.10;;;;;;5132566;27;20219;-65
2024/02/29 09:25:06;;;;;;;6.30;1.10;;;22.70;43.10;;;;;;5132699;27;20447;-66
2024/02/29 09:27:33;;;;;;;4.00;1.20;;;22.80;43.20;;;;;;5132407;27;20303;-66
2024/02/29 09:30:00;;;;;;;5.82;1.30;;;22.80;43.20;;;;;;5133332;27;20283;-66
2024/02/29 09:32:28;;;;;;;4.50;1.27;;;22.80;43.10;;;;;;5134430;27;20556;-66
2024/02/29 09:34:55;;;;;;;4.82;1.33;;;22.80;43.10;;;;;;5134235;27;20208;-63
2024/02/29 09:37:22;;;;;;;3.38;1.02;;;22.80;43.10;;;;;;5132065;27;20642;-64
2024/02/29 09:39:49;;;;;;;4.68;1.25;;;22.80;43.10;;;;;;5132178;27;20196;-65
2024/02/29 09:42:16;;;;;;;5.13;1.20;;;22.80;43.10;;;;;;5133955;27;20194;-67
2024/02/29 09:44:44;;;;;;;4.65;1.60;;;22.80;43.10;;;;;;5134375;27;20188;-66
2024/02/29 09:47:12;;;;;;;6.13;1.20;;;22.80;43.10;;;;;;5134130;27;20280;-66
2024/02/29 09:49:40;;;;;;;4.68;1.35;;;22.80;43.00;;;;;;5133877;27;20742;-65
2024/02/29 09:52:08;;;;;;;3.90;1.10;;;22.80;43.00;;;;;;5134298;27;20284;-65
2024/02/29 09:54:35;;;;;;;4.18;1.13;;;22.80;42.90;;;;;;5133346;27;20218;-62
2024/02/29 09:57:02;;;;;;;4.50;1.33;;;22.80;42.90;;;;;;5132440;27;20191;-64
2024/02/29 09:59:32;;;;;;;5.60;1.33;;;22.90;43.00;;;;;;5133767;27;20303;-65
2024/02/29 10:02:00;;;;;;;3.47;1.02;;;22.90;43.00;;;;;;5133822;27;20271;-67
2024/02/29 10:04:28;;;;;;;3.60;1.10;;;22.90;42.90;;;;;;5133365;27;20213;-67
2024/02/29 10:06:56;;;;;;;6.30;1.27;;;22.90;42.90;;;;;;5132725;27;20276;-67
2024/02/29 10:09:23;;;;;;;5.93;1.38;;;22.90;42.90;;;;;;5131470;27;20214;-68
2024/02/29 10:11:50;;;;;;;2.22;1.10;;;22.90;42.80;;;;;;5132769;27;20283;-65
2024/02/29 10:14:20;;;;;;;3.53;1.45;;;23.00;42.90;;;;;;5133357;27;20351;-66
2024/02/29 10:16:51;;;;;;;4.22;1.20;;;23.00;42.80;;;;;;5131635;27;20200;-65
2024/02/29 10:19:18;;;;;;;4.45;1.30;;;23.00;42.80;;;;;;5133586;27;20224;-65
2024/02/29 10:21:45;;;;;;;7.55;1.65;;;23.00;42.80;;;;;;5132580;27;20636;-66
2024/02/29 10:24:13;;;;;;;4.03;1.50;;;23.00;42.70;;;;;;5131198;27;20721;-65
2024/02/29 10:26:40;;;;;;;5.78;1.40;;;23.00;42.80;;;;;;5130909;27;20275;-63
2024/02/29 10:29:10;;;;;;;3.97;1.05;;;23.00;42.80;;;;;;5130470;27;20303;-65
2024/02/29 10:31:37;;;;;;;3.63;1.15;;;22.90;42.70;;;;;;5132630;27;20188;-66
2024/02/29 10:34:03;;;;;;;3.08;1.48;;;23.00;42.80;;;;;;5132370;27;20623;-64
2024/02/29 10:36:32;;;;;;;4.07;1.20;;;23.00;42.80;;;;;;5130194;27;20211;-63
2024/02/29 10:38:59;;;;;;;3.97;1.10;;;23.00;42.80;;;;;;5132620;27;20213;-63
2024/02/29 10:41:32;;;;;;;4.45;1.38;;;23.00;42.90;;;;;;5130852;27;20181;-65
2024/02/29 10:44:02;;;;;;;4.55;1.00;;;23.00;42.90;;;;;;5133051;27;20227;-61
2024/02/29 10:46:30;;;;;;;3.25;1.20;;;23.00;42.90;;;;;;5132697;27;20283;-66
2024/02/29 10:49:03;;;;;;;3.72;1.38;;;23.00;42.90;;;;;;5130962;27;20304;-64
2024/02/29 10:51:42;;;;;;;5.25;1.10;;;23.10;42.90;;;;;;5132620;27;20181;-65
2024/02/29 10:54:15;;;;;;;2.90;1.02;;;23.00;42.90;;;;;;5131050;27;20216;-67
2024/02/29 10:56:46;;;;;;;2.90;1.00;;;23.00;42.90;;;;;;5132364;27;20218;-66
2024/02/29 10:59:16;;;;;;;4.65;1.02;;;23.10;42.90;;;;;;5132652;27;20216;-67
2024/02/29 11:01:43;;;;;;;4.30;1.10;;;23.10;42.90;;;;;;5130674;27;20713;-66
2024/02/29 11:04:10;;;;;;;3.38;1.30;;;23.10;42.90;;;;;;5130790;27;20303;-67
2024/02/29 11:06:42;;;;;;;3.65;1.17;;;23.10;42.80;;;;;;5132269;27;20279;-66
2024/02/29 11:09:10;;;;;;;2.92;0.88;;;23.20;42.80;;;;;;5133119;27;20303;-64
2024/02/29 11:11:38;;;;;;;3.08;1.10;;;23.10;42.70;;;;;;5132118;28;20591;-65
2024/02/29 11:14:11;;;;;;;2.50;1.00;;;23.10;42.80;;;;;;5130449;28;20248;-66
2024/02/29 11:16:39;;;;;;;2.90;1.02;;;23.00;42.80;;;;;;5132519;28;20319;-67
2024/02/29 11:19:07;;;;;;;2.00;0.73;;;23.00;42.90;;;;;;5132647;28;20716;-67
2024/02/29 11:21:34;;;;;;;4.95;1.15;;;22.90;42.90;;;;;;5131036;27;20203;-67
2024/02/29 11:24:02;;;;;;;2.63;0.82;;;22.90;42.90;;;;;;5134677;27;20789;-66
2024/02/29 11:26:31;;;;;;;4.93;1.17;;;22.80;42.90;;;;;;5135955;27;20184;-65
2024/02/29 11:28:59;;;;;;;1.63;0.98;;;22.80;42.90;;;;;;5135014;27;20601;-66
2024/02/29 11:31:27;;;;;;;2.13;0.90;;;22.80;43.00;;;;;;5136786;27;20191;-65
2024/02/29 11:33:56;;;;;;;1.52;0.98;;;22.70;43.00;;;;;;5136635;27;20218;-67
2024/02/29 11:36:26;;;;;;;1.98;0.90;;;22.70;43.10;;;;;;5136075;27;20208;-67
2024/02/29 11:38:55;;;;;;;2.70;1.00;;;22.70;43.10;;;;;;5136640;27;20212;-68
2024/02/29 11:41:23;;;;;;;1.45;1.00;;;22.70;43.20;;;;;;5136989;27;20195;-66
2024/02/29 11:43:50;;;;;;;2.83;0.90;;;22.70;43.20;;;;;;5135124;27;20212;-64
2024/02/29 11:46:17;;;;;;;3.38;0.90;;;22.60;43.10;;;;;;5136293;27;20281;-68
2024/02/29 11:48:46;;;;;;;3.85;0.80;;;22.60;43.20;;;;;;5136543;27;20226;-66
2024/02/29 11:51:12;;;;;;;1.08;0.88;;;22.60;43.20;;;;;;5136218;27;20188;-64
2024/02/29 11:53:39;;;;;;;1.52;0.98;;;22.60;43.20;;;;;;5136714;27;20245;-68
2024/02/29 11:56:07;;;;;;;1.10;0.77;;;22.60;43.20;;;;;;5134751;27;20208;-65
2024/02/29 11:58:34;;;;;;;1.50;1.00;;;22.60;43.30;;;;;;5136303;27;20299;-68
2024/02/29 12:01:01;;;;;;;2.08;0.82;;;22.50;43.20;;;;;;5136038;27;20189;-66
2024/02/29 12:03:29;;;;;;;2.28;0.80;;;22.50;43.20;;;;;;5134230;27;20216;-65
2024/02/29 12:05:58;;;;;;;1.73;0.90;;;22.50;43.20;;;;;;5136051;27;20287;-65
2024/02/29 12:08:27;;;;;;;2.92;0.73;;;22.50;43.30;;;;;;5135952;27;20216;-68
2024/02/29 12:10:57;;;;;;;1.58;0.90;;;22.50;43.20;;;;;;5136050;27;20192;-65
2024/02/29 12:13:25;;;;;;;3.70;1.23;;;22.50;43.20;;;;;;5135518;27;20196;-67
2024/02/29 12:15:53;;;;;;;2.22;0.82;;;22.40;43.10;;;;;;5134313;27;20208;-64
2024/02/29 12:18:20;;;;;;;1.45;0.77;;;22.40;43.20;;;;;;5135677;27;20693;-67
2024/02/29 12:20:48;;;;;;;2.42;1.05;;;22.40;43.10;;;;;;5135680;27;20185;-64
2024/02/29 12:23:17;;;;;;;1.73;0.80;;;22.40;43.80;;;;;;5135585;27;20570;-67
2024/02/29 12:25:44;;;;;;;1.80;0.77;;;22.50;43.30;;;;;;5136114;27;20242;-67
2024/02/29 12:28:12;;;;;;;1.80;0.90;;;22.40;43.30;;;;;;5133696;27;20275;-65
2024/02/29 12:30:39;;;;;;;2.08;1.15;;;22.40;43.30;;;;;;5134787;27;20280;-66
2024/02/29 12:33:07;;;;;;;1.40;0.80;;;22.40;43.30;;;;;;5135383;27;20195;-66
2024/02/29 12:35:34;;;;;;;1.10;0.70;;;22.40;43.30;;;;;;5133461;27;20204;-67
2024/02/29 12:38:03;;;;;;;1.88;0.88;;;22.40;43.40;;;;;;5135747;27;20276;-64
2024/02/29 12:40:33;;;;;;;1.33;0.80;;;22.40;44.00;;;;;;5135750;27;20216;-66
2024/02/29 12:43:00;;;;;;;2.15;1.10;;;22.30;43.30;;;;;;5130043;27;20295;-64
2024/02/29 12:45:28;;;;;;;1.42;0.80;;;22.30;43.30;;;;;;5135459;27;20307;-65
2024/02/29 12:47:55;;;;;;;1.85;0.90;;;22.30;43.30;;;;;;5135064;27;20668;-64
2024/02/29 12:50:22;;;;;;;1.38;0.73;;;22.30;43.30;;;;;;5135109;27;20223;-65